Time;durP1;ratioP1;P1;durP2;ratioP2;P2;SDS_P1;SDS_P2;PMS_P1;PMS_P2;Temp;Humidity;BMP_temperature;BMP_pressure;BME280_temperature;BME280_humidity;BME280_pressure;Samples;Min_cycle;Max_cycle;Signal;HPM_P1;HPM_P2
2021/04/17 00:01:05;;;;;;;2.70;1.30;;;9.00;64.30;;;;;;5021540;28;20045;-71
2021/04/17 00:03:30;;;;;;;3.03;1.40;;;8.90;64.90;;;;;;5050653;28;20041;-71
2021/04/17 00:05:56;;;;;;;3.70;1.38;;;8.90;65.00;;;;;;5037671;28;20489;-70
2021/04/17 00:08:22;;;;;;;2.95;1.40;;;8.90;65.20;;;;;;5049804;28;20053;-70
2021/04/17 00:10:47;;;;;;;1.95;1.30;;;8.90;65.30;;;;;;5032187;28;20017;-70
2021/04/17 00:13:13;;;;;;;2.22;1.65;;;8.90;65.40;;;;;;5048259;28;20034;-70
2021/04/17 00:15:38;;;;;;;2.63;1.30;;;8.90;65.20;;;;;;5032766;28;20021;-71
2021/04/17 00:18:04;;;;;;;3.22;1.40;;;8.90;65.30;;;;;;5033452;28;20025;-70
2021/04/17 00:20:29;;;;;;;3.42;1.50;;;9.00;65.40;;;;;;5032327;28;20032;-69
2021/04/17 00:22:55;;;;;;;5.10;1.50;;;8.90;65.30;;;;;;5051129;28;20090;-70
2021/04/17 00:25:20;;;;;;;5.40;1.63;;;9.00;65.40;;;;;;5038920;28;20048;-69
2021/04/17 00:27:46;;;;;;;3.25;1.50;;;9.00;65.30;;;;;;5048857;28;20052;-69
2021/04/17 00:30:12;;;;;;;4.18;1.60;;;9.00;65.20;;;;;;5040266;28;20022;-69
2021/04/17 00:32:38;;;;;;;5.25;1.63;;;9.00;65.40;;;;;;5031053;28;20068;-69
2021/04/17 00:35:04;;;;;;;4.35;1.30;;;9.00;65.40;;;;;;5032070;28;20049;-69
2021/04/17 00:37:30;;;;;;;4.50;1.30;;;9.00;65.40;;;;;;5046502;28;20036;-70
2021/04/17 00:39:55;;;;;;;2.38;1.35;;;9.10;65.30;;;;;;5039756;28;20025;-70
2021/04/17 00:42:21;;;;;;;3.92;1.38;;;9.00;65.30;;;;;;5045192;28;20083;-70
2021/04/17 00:44:46;;;;;;;3.85;1.40;;;9.10;65.20;;;;;;5040476;28;20109;-70
2021/04/17 00:47:12;;;;;;;3.22;1.50;;;9.00;65.30;;;;;;5044346;28;20025;-70
2021/04/17 00:49:37;;;;;;;4.78;1.30;;;9.00;65.40;;;;;;5039498;28;20017;-69
2021/04/17 00:52:03;;;;;;;4.35;1.50;;;9.10;65.50;;;;;;5042171;28;20377;-69
2021/04/17 00:54:29;;;;;;;2.60;1.45;;;9.10;65.60;;;;;;5035951;28;20033;-69
2021/04/17 00:56:54;;;;;;;3.53;1.40;;;9.10;65.50;;;;;;5039443;28;20017;-69
2021/04/17 00:59:20;;;;;;;3.60;1.27;;;9.00;65.70;;;;;;5037788;28;20033;-69
2021/04/17 01:01:46;;;;;;;4.38;1.45;;;9.10;65.60;;;;;;5039701;28;20505;-69
2021/04/17 01:04:19;;;;;;;3.63;1.17;;;9.00;65.60;;;;;;5018601;28;20029;-68
2021/04/17 01:07:20;;;;;;;2.75;1.50;;;9.10;65.60;;;;;;5047126;28;20107;-69
2021/04/17 01:10:12;;;;;;;3.63;1.15;;;9.10;65.80;;;;;;5013260;28;20066;-69
2021/04/17 01:12:41;;;;;;;5.40;1.45;;;9.10;65.80;;;;;;5045958;28;20432;-70
2021/04/17 01:15:09;;;;;;;2.85;1.50;;;8.90;65.80;;;;;;5034729;28;20039;-70
2021/04/17 01:17:55;;;;;;;4.88;1.50;;;8.90;66.30;;;;;;5049102;28;20048;-71
2021/04/17 01:20:47;;;;;;;3.50;1.50;;;8.90;66.20;;;;;;5039971;28;20075;-72
2021/04/17 01:23:38;;;;;;;1.90;1.23;;;8.90;66.50;;;;;;5025631;28;20216;-71
2021/04/17 01:26:13;;;;;;;2.72;1.30;;;8.90;66.40;;;;;;5041005;28;20029;-71
2021/04/17 01:28:41;;;;;;;3.40;1.50;;;8.90;66.40;;;;;;5039090;28;20138;-71
2021/04/17 01:31:11;;;;;;;2.75;1.42;;;8.90;66.30;;;;;;5032467;28;20029;-71
2021/04/17 01:33:39;;;;;;;2.58;1.50;;;8.90;66.20;;;;;;5027687;28;20033;-69
2021/04/17 01:36:06;;;;;;;3.72;1.80;;;8.90;66.30;;;;;;5046283;28;20021;-69
2021/04/17 01:38:40;;;;;;;4.22;1.40;;;8.90;66.80;;;;;;5050512;28;20064;-69
2021/04/17 01:41:14;;;;;;;2.70;1.50;;;8.90;67.90;;;;;;5046403;28;20056;-70
2021/04/17 01:43:41;;;;;;;2.40;1.52;;;8.90;68.40;;;;;;5046101;28;20037;-71
2021/04/17 01:46:13;;;;;;;4.47;1.35;;;8.90;69.00;;;;;;5034242;28;20078;-70
2021/04/17 01:48:41;;;;;;;2.72;1.33;;;8.80;68.90;;;;;;5039042;28;20086;-70
2021/04/17 01:51:08;;;;;;;3.50;1.88;;;8.80;69.00;;;;;;5030230;28;20021;-70
2021/04/17 01:53:37;;;;;;;4.20;1.95;;;8.80;69.40;;;;;;5046360;28;20025;-70
2021/04/17 01:56:04;;;;;;;3.92;1.42;;;8.70;69.40;;;;;;5029791;28;20025;-70
2021/04/17 01:58:31;;;;;;;3.15;1.50;;;8.70;69.20;;;;;;5032060;28;20026;-70
2021/04/17 02:00:58;;;;;;;3.65;1.40;;;8.70;69.30;;;;;;5044391;28;20505;-70
2021/04/17 02:03:24;;;;;;;3.80;1.75;;;8.70;69.50;;;;;;5050487;28;20041;-70
2021/04/17 02:05:51;;;;;;;3.00;1.42;;;8.80;69.70;;;;;;5035392;28;20033;-70
2021/04/17 02:08:17;;;;;;;2.67;1.50;;;8.80;69.70;;;;;;5051763;28;20031;-70
2021/04/17 02:10:44;;;;;;;2.83;1.30;;;8.90;70.00;;;;;;5034064;28;20477;-70
2021/04/17 02:13:11;;;;;;;4.20;1.55;;;8.90;69.90;;;;;;5049445;28;20033;-70
2021/04/17 02:15:37;;;;;;;4.47;1.58;;;8.90;70.40;;;;;;5032458;28;20036;-70
2021/04/17 02:18:22;;;;;;;2.70;1.38;;;8.90;70.10;;;;;;5043736;28;20026;-70
2021/04/17 02:21:05;;;;;;;2.78;1.60;;;8.90;69.90;;;;;;5034699;28;20025;-70
2021/04/17 02:23:32;;;;;;;2.42;1.75;;;9.00;70.00;;;;;;5051248;28;20037;-70
2021/04/17 02:25:59;;;;;;;4.78;1.58;;;9.00;70.40;;;;;;5035691;28;20120;-70
2021/04/17 02:28:26;;;;;;;2.97;1.75;;;9.00;70.30;;;;;;5051322;28;20079;-70
2021/04/17 02:30:52;;;;;;;3.83;1.58;;;9.00;70.30;;;;;;5037280;28;20462;-70
2021/04/17 02:33:18;;;;;;;2.20;1.30;;;9.00;70.20;;;;;;5030955;28;20033;-70
2021/04/17 02:35:43;;;;;;;2.92;1.60;;;8.90;70.40;;;;;;5034057;28;20025;-70
2021/04/17 02:38:09;;;;;;;2.90;1.40;;;8.90;70.40;;;;;;5048609;28;20082;-70
2021/04/17 02:40:35;;;;;;;3.33;1.27;;;9.00;70.40;;;;;;5045163;28;20036;-70
2021/04/17 02:43:00;;;;;;;2.35;1.30;;;9.00;70.20;;;;;;5033075;28;20110;-71
2021/04/17 02:45:26;;;;;;;2.90;1.30;;;9.00;70.10;;;;;;5034182;28;20018;-70
2021/04/17 02:47:51;;;;;;;2.30;1.40;;;9.00;70.00;;;;;;5041404;28;20421;-70
2021/04/17 02:50:17;;;;;;;2.42;1.02;;;9.00;70.00;;;;;;5029210;28;20033;-70
2021/04/17 02:52:43;;;;;;;3.45;1.50;;;9.00;69.90;;;;;;5042875;28;20030;-70
2021/04/17 02:55:09;;;;;;;5.50;1.35;;;9.00;69.90;;;;;;5029798;28;20057;-70
2021/04/17 02:57:35;;;;;;;4.03;1.83;;;9.10;69.90;;;;;;5030244;28;20508;-70
2021/04/17 03:00:00;;;;;;;5.18;1.50;;;9.00;69.60;;;;;;5030595;28;20025;-70
2021/04/17 03:02:26;;;;;;;4.22;1.60;;;9.00;69.80;;;;;;5029966;28;20022;-70
2021/04/17 03:04:51;;;;;;;2.58;1.23;;;9.00;69.70;;;;;;5013445;28;20052;-71
2021/04/17 03:07:17;;;;;;;3.15;1.40;;;9.00;70.20;;;;;;5028450;28;20025;-69
2021/04/17 03:09:42;;;;;;;4.40;1.60;;;9.00;69.80;;;;;;5033933;28;20041;-69
2021/04/17 03:12:08;;;;;;;3.67;1.30;;;9.00;69.60;;;;;;5026856;28;20026;-69
2021/04/17 03:14:34;;;;;;;3.53;1.73;;;9.00;69.60;;;;;;5035004;28;20037;-69
2021/04/17 03:17:00;;;;;;;3.60;1.48;;;8.90;70.00;;;;;;5024732;28;20033;-69
2021/04/17 03:19:46;;;;;;;3.30;1.50;;;8.90;70.10;;;;;;5042109;28;20130;-69
2021/04/17 03:22:12;;;;;;;3.40;1.40;;;8.90;70.10;;;;;;5043250;28;20097;-69
2021/04/17 03:24:37;;;;;;;2.70;1.52;;;9.00;70.20;;;;;;5039119;28;20032;-69
2021/04/17 03:27:04;;;;;;;3.40;1.73;;;8.90;69.90;;;;;;5045616;28;20041;-69
2021/04/17 03:29:30;;;;;;;5.03;1.90;;;8.90;69.80;;;;;;5034379;28;20038;-69
2021/04/17 03:31:56;;;;;;;5.97;1.60;;;8.90;70.20;;;;;;5038809;28;20018;-69
2021/04/17 03:34:21;;;;;;;3.72;1.80;;;8.90;70.00;;;;;;5033487;28;20520;-69
2021/04/17 03:36:47;;;;;;;3.40;1.33;;;8.90;69.90;;;;;;5032678;28;20056;-69
2021/04/17 03:39:13;;;;;;;5.45;1.58;;;8.90;69.80;;;;;;5043867;28;20036;-69
2021/04/17 03:41:38;;;;;;;4.22;1.40;;;8.90;69.70;;;;;;5045518;28;20026;-70
2021/04/17 03:44:05;;;;;;;2.90;1.50;;;8.90;69.60;;;;;;5034303;28;20052;-69
2021/04/17 03:46:31;;;;;;;4.05;1.63;;;8.90;69.30;;;;;;5043341;28;20243;-69
2021/04/17 03:48:56;;;;;;;3.63;1.30;;;8.90;69.30;;;;;;5052068;28;20036;-72
2021/04/17 03:51:22;;;;;;;5.28;1.63;;;8.90;68.90;;;;;;5046375;28;20028;-72
2021/04/17 03:53:48;;;;;;;6.07;1.70;;;8.90;68.70;;;;;;5054442;28;20020;-72
2021/04/17 03:56:14;;;;;;;3.22;1.67;;;8.90;68.40;;;;;;5030156;28;20387;-72
2021/04/17 03:58:40;;;;;;;4.18;1.50;;;8.90;68.50;;;;;;5014504;28;20050;-72
2021/04/17 04:01:06;;;;;;;6.40;1.70;;;8.80;68.40;;;;;;5034898;28;20048;-72
2021/04/17 04:03:31;;;;;;;3.90;1.55;;;8.80;68.40;;;;;;5051425;28;20140;-72
2021/04/17 04:05:57;;;;;;;4.15;1.65;;;8.90;68.50;;;;;;5042073;28;20120;-72
2021/04/17 04:08:22;;;;;;;3.83;1.67;;;8.90;68.10;;;;;;5053934;28;20048;-72
2021/04/17 04:10:48;;;;;;;5.68;1.80;;;8.80;68.00;;;;;;5044839;28;20532;-72
2021/04/17 04:13:13;;;;;;;5.25;1.80;;;8.80;68.20;;;;;;5033058;28;20461;-71
2021/04/17 04:15:39;;;;;;;4.55;1.80;;;8.80;68.20;;;;;;5035640;28;20029;-71
2021/04/17 04:18:04;;;;;;;3.08;1.67;;;8.80;68.10;;;;;;5053801;28;20067;-71
2021/04/17 04:20:30;;;;;;;3.55;1.85;;;8.90;68.00;;;;;;5038566;28;20488;-72
2021/04/17 04:22:57;;;;;;;5.30;2.72;;;8.90;67.80;;;;;;5053533;28;20060;-72
2021/04/17 04:25:23;;;;;;;4.20;1.50;;;8.90;67.90;;;;;;5035872;28;20021;-71
2021/04/17 04:27:48;;;;;;;3.10;1.65;;;8.90;67.90;;;;;;5035400;28;20055;-72
2021/04/17 04:30:14;;;;;;;4.45;1.75;;;8.90;67.90;;;;;;5038087;28;20022;-71
2021/04/17 04:32:40;;;;;;;4.05;1.40;;;8.90;67.80;;;;;;5053118;28;20017;-73
2021/04/17 04:35:06;;;;;;;2.83;1.60;;;8.90;67.80;;;;;;5032996;28;20026;-72
2021/04/17 04:37:32;;;;;;;3.78;1.63;;;8.90;67.80;;;;;;5036218;28;20059;-71
2021/04/17 04:39:57;;;;;;;2.45;1.95;;;8.90;67.60;;;;;;5032366;28;20458;-70
2021/04/17 04:42:23;;;;;;;4.70;1.52;;;8.80;67.50;;;;;;5034791;28;20029;-70
2021/04/17 04:44:48;;;;;;;3.03;1.60;;;8.70;67.40;;;;;;5032006;28;20037;-70
2021/04/17 04:47:14;;;;;;;3.90;1.55;;;8.70;68.00;;;;;;5031783;28;20026;-72
2021/04/17 04:49:39;;;;;;;3.50;1.73;;;8.70;67.70;;;;;;5014506;28;20631;-70
2021/04/17 04:52:05;;;;;;;2.35;1.45;;;8.70;67.60;;;;;;5035455;28;20083;-70
2021/04/17 04:54:31;;;;;;;3.80;1.50;;;8.70;67.70;;;;;;5032694;28;20029;-69
2021/04/17 04:56:57;;;;;;;4.25;2.50;;;8.60;67.90;;;;;;5017024;28;20037;-69
2021/04/17 04:59:22;;;;;;;5.80;1.80;;;8.60;67.90;;;;;;5025430;28;20063;-69
2021/04/17 05:01:47;;;;;;;4.18;2.20;;;8.60;68.00;;;;;;5042968;28;20041;-69
2021/04/17 05:04:13;;;;;;;4.07;1.83;;;8.60;67.90;;;;;;5038774;28;20374;-69
2021/04/17 05:06:38;;;;;;;2.05;1.13;;;8.60;67.90;;;;;;5030983;28;20028;-68
2021/04/17 05:09:05;;;;;;;5.38;1.42;;;8.60;68.00;;;;;;5032437;28;20018;-68
2021/04/17 05:11:32;;;;;;;7.32;1.50;;;8.60;68.20;;;;;;5039412;28;20029;-68
2021/04/17 05:13:58;;;;;;;3.45;1.40;;;8.50;68.20;;;;;;5032802;28;20037;-68
2021/04/17 05:16:23;;;;;;;4.22;1.50;;;8.50;68.40;;;;;;5040650;28;20025;-68
2021/04/17 05:18:51;;;;;;;4.75;1.58;;;8.40;68.90;;;;;;5031527;28;20056;-68
2021/04/17 05:21:17;;;;;;;5.50;1.70;;;8.40;68.90;;;;;;5019376;28;20489;-68
2021/04/17 05:23:43;;;;;;;4.38;1.52;;;8.40;69.10;;;;;;5032083;28;20041;-68
2021/04/17 05:26:08;;;;;;;2.35;1.50;;;8.40;68.90;;;;;;5030009;28;20075;-68
2021/04/17 05:28:33;;;;;;;6.25;1.40;;;8.40;69.20;;;;;;5026939;28;20072;-68
2021/04/17 05:30:59;;;;;;;2.90;1.40;;;8.40;69.20;;;;;;5036547;28;20456;-68
2021/04/17 05:33:25;;;;;;;4.20;1.35;;;8.40;69.40;;;;;;5033286;28;20025;-68
2021/04/17 05:35:50;;;;;;;3.75;1.83;;;8.40;69.40;;;;;;5030956;28;20030;-69
2021/04/17 05:38:16;;;;;;;3.03;1.35;;;8.40;69.90;;;;;;5033884;28;20032;-68
2021/04/17 05:40:41;;;;;;;3.50;1.38;;;8.30;70.50;;;;;;5046902;28;20461;-68
2021/04/17 05:43:07;;;;;;;4.07;1.50;;;8.30;70.20;;;;;;5037049;28;20506;-68
2021/04/17 05:45:32;;;;;;;4.20;1.60;;;8.30;70.20;;;;;;5033354;28;20025;-68
2021/04/17 05:47:58;;;;;;;3.88;1.60;;;8.30;70.10;;;;;;5044418;28;20026;-69
2021/04/17 05:50:23;;;;;;;2.97;1.40;;;8.40;71.00;;;;;;5018802;28;20025;-68
2021/04/17 05:52:49;;;;;;;3.28;1.42;;;8.30;70.80;;;;;;5034329;28;20044;-68
2021/04/17 05:55:15;;;;;;;3.30;1.48;;;8.30;70.90;;;;;;5027697;28;20466;-68
2021/04/17 05:57:40;;;;;;;4.38;1.65;;;8.30;71.00;;;;;;5031249;28;20022;-68
2021/04/17 06:00:07;;;;;;;4.53;1.67;;;8.30;70.80;;;;;;5039764;28;20477;-69
2021/04/17 06:02:32;;;;;;;6.18;1.63;;;8.30;70.90;;;;;;5032651;28;20072;-69
2021/04/17 06:04:58;;;;;;;3.20;1.55;;;8.30;71.20;;;;;;5030328;28;20033;-69
2021/04/17 06:07:23;;;;;;;2.90;1.60;;;8.30;71.40;;;;;;5047320;28;20025;-69
2021/04/17 06:09:49;;;;;;;3.80;1.30;;;8.30;71.20;;;;;;5051384;28;20025;-71
2021/04/17 06:12:14;;;;;;;6.60;2.15;;;8.40;71.30;;;;;;5046690;28;20021;-70
2021/04/17 06:14:40;;;;;;;4.50;1.90;;;8.40;71.20;;;;;;5051684;28;20500;-69
2021/04/17 06:17:06;;;;;;;3.10;1.60;;;8.40;71.60;;;;;;5032704;28;20030;-70
2021/04/17 06:19:31;;;;;;;3.78;1.58;;;8.40;71.60;;;;;;5029384;28;20033;-69
2021/04/17 06:21:57;;;;;;;2.30;1.38;;;8.40;71.50;;;;;;5044243;28;20079;-69
2021/04/17 06:24:24;;;;;;;3.67;1.40;;;8.40;71.50;;;;;;5032030;28;20501;-69
2021/04/17 06:26:49;;;;;;;5.05;1.88;;;8.50;71.60;;;;;;5044029;28;20477;-70
2021/04/17 06:29:16;;;;;;;5.82;1.75;;;8.50;71.60;;;;;;5033849;28;20033;-69
2021/04/17 06:31:41;;;;;;;3.95;1.63;;;8.50;71.60;;;;;;5047554;28;20482;-70
2021/04/17 06:34:07;;;;;;;4.07;1.48;;;8.40;72.00;;;;;;5042102;28;20061;-70
2021/04/17 06:36:33;;;;;;;5.47;1.85;;;8.40;72.00;;;;;;5048287;28;20424;-71
2021/04/17 06:38:58;;;;;;;3.67;1.80;;;8.40;72.20;;;;;;5040968;28;20036;-71
2021/04/17 06:41:26;;;;;;;3.65;1.77;;;8.30;72.60;;;;;;5038796;28;20029;-71
2021/04/17 06:43:54;;;;;;;6.90;1.70;;;8.30;72.70;;;;;;5020138;28;20076;-71
2021/04/17 06:46:20;;;;;;;3.42;1.58;;;8.30;73.20;;;;;;5038756;28;20041;-71
2021/04/17 06:48:46;;;;;;;4.20;1.88;;;8.30;73.70;;;;;;5034161;28;20030;-70
2021/04/17 06:51:18;;;;;;;4.00;1.60;;;8.30;74.00;;;;;;5027361;28;20363;-70
2021/04/17 06:53:44;;;;;;;3.25;1.63;;;8.30;73.80;;;;;;5031582;28;20083;-70
2021/04/17 06:56:11;;;;;;;2.90;1.42;;;8.30;73.70;;;;;;5031996;28;20029;-70
2021/04/17 06:58:39;;;;;;;2.75;1.23;;;8.30;73.80;;;;;;5031051;28;20029;-70
2021/04/17 07:01:05;;;;;;;4.72;1.60;;;8.30;74.30;;;;;;5030580;28;20092;-71
2021/04/17 07:03:30;;;;;;;6.00;1.85;;;8.30;74.70;;;;;;5038222;28;20063;-70
2021/04/17 07:05:56;;;;;;;5.18;2.13;;;8.20;74.90;;;;;;5045258;28;20478;-69
2021/04/17 07:08:22;;;;;;;5.72;1.70;;;8.30;75.20;;;;;;5028025;28;20033;-70
2021/04/17 07:10:47;;;;;;;5.07;1.92;;;8.20;75.50;;;;;;5027734;28;20427;-70
2021/04/17 07:13:15;;;;;;;3.88;1.55;;;8.20;75.80;;;;;;5013124;28;20026;-69
2021/04/17 07:15:42;;;;;;;3.95;2.05;;;8.20;76.40;;;;;;5029861;28;20410;-69
2021/04/17 07:18:26;;;;;;;6.38;2.10;;;8.20;76.30;;;;;;5032715;28;20045;-69
2021/04/17 07:21:12;;;;;;;5.05;1.85;;;8.30;76.50;;;;;;5040688;28;20041;-69
2021/04/17 07:23:43;;;;;;;5.55;2.33;;;8.30;76.20;;;;;;5037327;28;20047;-69
2021/04/17 07:26:12;;;;;;;5.78;2.15;;;8.30;76.20;;;;;;5033008;28;20029;-70
2021/04/17 07:28:40;;;;;;;8.05;2.05;;;8.40;76.30;;;;;;5030102;28;20032;-70
2021/04/17 07:31:07;;;;;;;4.47;1.92;;;8.40;76.40;;;;;;5032385;28;20043;-70
2021/04/17 07:33:33;;;;;;;6.07;1.70;;;8.40;76.60;;;;;;5044956;28;20429;-70
2021/04/17 07:36:02;;;;;;;4.45;1.85;;;8.40;76.50;;;;;;5031625;28;20052;-69
2021/04/17 07:38:33;;;;;;;8.68;2.13;;;8.50;76.80;;;;;;5034045;28;20040;-69
2021/04/17 07:41:04;;;;;;;4.93;1.83;;;8.50;76.90;;;;;;5036800;28;20033;-68
2021/04/17 07:43:59;;;;;;;5.57;2.20;;;8.50;76.80;;;;;;5028461;28;20045;-68
2021/04/17 07:46:43;;;;;;;6.05;1.83;;;8.60;76.70;;;;;;5025155;28;20034;-68
2021/04/17 07:49:10;;;;;;;5.32;2.05;;;8.60;76.70;;;;;;5029285;28;20029;-68
2021/04/17 07:51:56;;;;;;;4.15;1.83;;;8.70;77.10;;;;;;5033955;28;20044;-68
2021/04/17 07:54:22;;;;;;;4.20;2.08;;;8.70;77.00;;;;;;5035341;28;20053;-68
2021/04/17 07:56:47;;;;;;;7.05;2.10;;;8.70;76.90;;;;;;5037694;28;20574;-67
2021/04/17 07:59:13;;;;;;;5.60;1.80;;;8.60;77.30;;;;;;5032579;28;20025;-68
2021/04/17 08:01:41;;;;;;;7.88;2.00;;;8.70;77.40;;;;;;5035681;28;20057;-66
2021/04/17 08:04:07;;;;;;;4.10;1.67;;;8.80;77.60;;;;;;5033968;28;20033;-68
2021/04/17 08:06:33;;;;;;;4.35;2.08;;;8.90;77.30;;;;;;5038221;28;20025;-68
2021/04/17 08:08:59;;;;;;;5.45;2.00;;;9.00;77.00;;;;;;5036171;28;20036;-68
2021/04/17 08:11:29;;;;;;;5.07;2.10;;;9.20;76.70;;;;;;5032243;28;20096;-68
2021/04/17 08:13:56;;;;;;;4.22;1.90;;;9.20;76.50;;;;;;5016517;28;20100;-68
2021/04/17 08:16:21;;;;;;;5.93;1.80;;;9.30;76.20;;;;;;5020645;28;20405;-67
2021/04/17 08:18:47;;;;;;;5.50;2.15;;;9.40;76.10;;;;;;5052818;28;20040;-67
2021/04/17 08:21:15;;;;;;;5.85;1.95;;;9.50;76.20;;;;;;5036340;28;20029;-68
2021/04/17 08:23:47;;;;;;;7.45;2.20;;;9.60;76.20;;;;;;5050050;28;20418;-68
2021/04/17 08:26:13;;;;;;;5.00;2.15;;;9.70;75.70;;;;;;5038923;28;20032;-68
2021/04/17 08:28:42;;;;;;;6.53;2.75;;;9.80;75.70;;;;;;5053830;28;20110;-68
2021/04/17 08:31:31;;;;;;;7.72;2.53;;;9.80;75.20;;;;;;5033577;28;20053;-68
2021/04/17 08:34:07;;;;;;;4.90;2.20;;;9.80;75.10;;;;;;5013986;28;20091;-68
2021/04/17 08:36:34;;;;;;;5.57;2.13;;;9.90;74.70;;;;;;5027139;28;20029;-68
2021/04/17 08:39:00;;;;;;;6.78;2.30;;;10.00;74.80;;;;;;5043397;28;20112;-68
2021/04/17 08:41:43;;;;;;;4.35;2.30;;;10.20;74.70;;;;;;5036892;28;20108;-68
2021/04/17 08:44:32;;;;;;;7.78;2.42;;;10.50;74.20;;;;;;5013633;28;20046;-68
2021/04/17 08:47:00;;;;;;;8.32;2.40;;;10.60;73.20;;;;;;5023234;28;20070;-68
2021/04/17 08:49:28;;;;;;;10.65;2.70;;;10.70;72.30;;;;;;5014845;28;20030;-68
2021/04/17 08:52:08;;;;;;;3.70;2.17;;;10.70;72.10;;;;;;5031572;28;20140;-68
2021/04/17 08:54:38;;;;;;;10.13;2.78;;;10.90;72.20;;;;;;5033455;28;20017;-68
2021/04/17 08:57:15;;;;;;;4.50;2.30;;;10.80;71.50;;;;;;5043043;28;20040;-68
2021/04/17 08:59:42;;;;;;;6.55;2.35;;;10.80;71.50;;;;;;5053467;28;20028;-68
2021/04/17 09:02:15;;;;;;;7.68;2.58;;;10.90;71.90;;;;;;5049757;28;20044;-68
2021/04/17 09:04:59;;;;;;;5.10;2.13;;;11.10;71.70;;;;;;5052683;28;20060;-68
2021/04/17 09:07:26;;;;;;;8.85;2.38;;;11.20;70.10;;;;;;5049997;28;20039;-68
2021/04/17 09:09:52;;;;;;;7.45;2.55;;;11.20;70.50;;;;;;5052717;28;20072;-68
2021/04/17 09:12:19;;;;;;;5.93;2.13;;;11.20;70.30;;;;;;5049211;28;20378;-69
2021/04/17 09:14:53;;;;;;;4.15;2.00;;;11.30;70.40;;;;;;5032832;28;20072;-68
2021/04/17 09:17:31;;;;;;;4.70;2.20;;;11.30;70.10;;;;;;5044308;28;20052;-68
2021/04/17 09:20:00;;;;;;;8.93;2.70;;;11.50;69.90;;;;;;5041713;28;20381;-69
2021/04/17 09:22:27;;;;;;;9.30;2.70;;;11.50;69.50;;;;;;5044912;28;20131;-69
2021/04/17 09:24:53;;;;;;;6.43;2.88;;;11.60;68.90;;;;;;5052640;28;20029;-67
2021/04/17 09:27:39;;;;;;;7.93;2.50;;;11.60;68.90;;;;;;5048939;28;20119;-67
2021/04/17 09:30:10;;;;;;;7.53;2.85;;;11.60;69.00;;;;;;5052579;28;20035;-68
2021/04/17 09:32:46;;;;;;;6.50;2.40;;;11.60;68.20;;;;;;5036263;28;20026;-67
2021/04/17 09:35:39;;;;;;;5.18;2.50;;;11.50;68.70;;;;;;5032231;28;20091;-67
2021/04/17 09:38:14;;;;;;;5.30;2.53;;;11.50;68.40;;;;;;5049353;28;20078;-68
2021/04/17 09:40:45;;;;;;;6.32;2.42;;;11.50;68.70;;;;;;5049742;28;20543;-67
2021/04/17 09:43:31;;;;;;;4.95;3.08;;;11.60;69.10;;;;;;5032006;28;20125;-67
2021/04/17 09:46:00;;;;;;;;;;;11.80;69.00;;;;;;5033350;28;20021;-68
2021/04/17 09:48:27;;;;;;;5.80;2.70;;;11.90;69.00;;;;;;5048083;28;19916;-67
2021/04/17 09:50:57;;;;;;;9.35;3.10;;;12.00;68.60;;;;;;5046850;28;20030;-67
2021/04/17 09:53:37;;;;;;;6.15;2.63;;;12.10;68.40;;;;;;5034620;28;20029;-67
2021/04/17 09:56:12;;;;;;;7.78;3.28;;;12.20;68.50;;;;;;5049162;28;20180;-68
2021/04/17 09:58:43;;;;;;;7.72;2.97;;;12.30;66.60;;;;;;5052042;28;20111;-67
2021/04/17 10:01:15;;;;;;;8.23;3.40;;;12.20;66.60;;;;;;5031389;28;20387;-67
2021/04/17 10:03:42;;;;;;;10.38;3.38;;;12.10;67.00;;;;;;5034202;28;20120;-67
2021/04/17 10:06:29;;;;;;;8.05;4.03;;;12.20;67.50;;;;;;5032820;28;20021;-67
2021/04/17 10:09:10;;;;;;;11.23;3.70;;;12.30;66.40;;;;;;5051780;28;20056;-68
2021/04/17 10:11:37;;;;;;;6.53;2.95;;;12.00;66.50;;;;;;5048811;28;20021;-68
2021/04/17 10:14:04;;;;;;;9.30;3.00;;;11.90;67.20;;;;;;5051562;28;20040;-68
2021/04/17 10:16:36;;;;;;;8.93;3.35;;;11.90;67.80;;;;;;5044573;28;20021;-68
2021/04/17 10:19:03;;;;;;;10.30;3.53;;;11.90;67.70;;;;;;5049713;28;20025;-68
2021/04/17 10:21:34;;;;;;;7.85;3.53;;;12.00;68.00;;;;;;5048580;28;20047;-68
2021/04/17 10:24:23;;;;;;;9.23;3.35;;;12.30;67.80;;;;;;5051479;28;20033;-68
2021/04/17 10:27:04;;;;;;;10.70;3.75;;;12.40;67.10;;;;;;5048443;28;20445;-68
2021/04/17 10:29:34;;;;;;;9.20;3.35;;;12.40;66.90;;;;;;5045635;28;20036;-69
2021/04/17 10:32:02;;;;;;;7.47;2.95;;;12.40;66.90;;;;;;5029589;28;20057;-68
2021/04/17 10:34:28;;;;;;;7.75;4.13;;;12.50;67.00;;;;;;5031836;28;20029;-68
2021/04/17 10:37:05;;;;;;;6.80;3.20;;;12.60;66.70;;;;;;5039553;28;20044;-68
2021/04/17 10:39:31;;;;;;;8.60;3.00;;;12.60;66.30;;;;;;5049445;28;20136;-68
2021/04/17 10:41:59;;;;;;;10.20;3.50;;;12.70;66.50;;;;;;5047599;28;20541;-68
2021/04/17 10:44:24;;;;;;;11.35;3.40;;;12.80;66.10;;;;;;5037577;28;20030;-68
2021/04/17 10:46:50;;;;;;;7.40;3.22;;;12.80;66.50;;;;;;5039150;28;20032;-68
2021/04/17 10:49:34;;;;;;;6.88;3.67;;;13.00;65.50;;;;;;5045171;28;20551;-68
2021/04/17 10:52:03;;;;;;;10.93;4.00;;;13.00;65.40;;;;;;5034854;28;20030;-68
2021/04/17 10:54:29;;;;;;;8.57;3.33;;;13.10;65.60;;;;;;5051218;28;20025;-68
2021/04/17 10:56:56;;;;;;;8.95;3.72;;;13.30;65.30;;;;;;5047726;28;20048;-68
2021/04/17 10:59:22;;;;;;;7.10;3.50;;;13.40;64.90;;;;;;5051088;28;20064;-67
2021/04/17 11:01:48;;;;;;;8.07;3.97;;;13.70;65.10;;;;;;5047752;28;20163;-67
2021/04/17 11:04:14;;;;;;;8.45;3.80;;;13.80;64.10;;;;;;5050780;28;20068;-68
2021/04/17 11:06:45;;;;;;;7.45;4.00;;;14.00;62.60;;;;;;5047242;28;20059;-67
2021/04/17 11:09:19;;;;;;;8.27;3.92;;;14.00;62.20;;;;;;5050962;28;20357;-67
2021/04/17 11:12:00;;;;;;;9.30;4.35;;;13.90;62.60;;;;;;5043192;28;20389;-67
2021/04/17 11:14:27;;;;;;;7.50;3.67;;;14.00;62.80;;;;;;5046903;28;20025;-68
2021/04/17 11:16:54;;;;;;;8.63;4.80;;;14.10;62.80;;;;;;5047232;28;20037;-67
2021/04/17 11:19:25;;;;;;;7.25;4.63;;;14.20;62.50;;;;;;5049016;28;20025;-68
2021/04/17 11:22:24;;;;;;;9.80;4.28;;;14.20;62.00;;;;;;5047100;28;20436;-68
2021/04/17 11:24:56;;;;;;;9.38;3.67;;;14.20;62.50;;;;;;5051034;28;20385;-68
2021/04/17 11:27:22;;;;;;;5.72;3.90;;;14.30;62.10;;;;;;5017142;28;20037;-68
2021/04/17 11:29:47;;;;;;;7.70;3.63;;;14.20;62.00;;;;;;5033701;28;20033;-68
2021/04/17 11:32:13;;;;;;;7.68;3.67;;;14.20;61.80;;;;;;5037674;28;20429;-68
2021/04/17 11:34:42;;;;;;;9.32;4.45;;;14.20;62.00;;;;;;5033541;28;20133;-68
2021/04/17 11:37:08;;;;;;;9.52;4.30;;;14.10;62.10;;;;;;5026435;28;20104;-68
2021/04/17 11:39:33;;;;;;;10.98;4.32;;;14.20;62.30;;;;;;5034774;28;20036;-68
2021/04/17 11:41:59;;;;;;;11.00;4.50;;;14.20;62.40;;;;;;5042920;28;20401;-68
2021/04/17 11:44:24;;;;;;;8.25;4.55;;;14.10;62.40;;;;;;5000586;28;20082;-68
2021/04/17 11:46:50;;;;;;;9.73;4.53;;;14.20;62.50;;;;;;5042451;28;20404;-67
2021/04/17 11:49:15;;;;;;;8.02;4.35;;;14.30;62.50;;;;;;5048510;28;20026;-67
2021/04/17 11:51:41;;;;;;;11.68;4.18;;;14.40;62.60;;;;;;5033684;28;20029;-69
2021/04/17 11:54:06;;;;;;;8.68;3.70;;;14.50;62.40;;;;;;5026645;28;20109;-68
2021/04/17 11:56:32;;;;;;;8.90;3.88;;;14.60;62.50;;;;;;5033361;28;20065;-68
2021/04/17 11:58:57;;;;;;;6.43;3.40;;;14.70;61.60;;;;;;5048178;28;20113;-68
2021/04/17 12:01:23;;;;;;;8.82;4.20;;;14.70;61.30;;;;;;5036494;28;20095;-68
2021/04/17 12:03:48;;;;;;;9.52;4.30;;;14.90;61.60;;;;;;5050152;28;20065;-68
2021/04/17 12:06:14;;;;;;;8.93;4.10;;;15.00;61.50;;;;;;5019095;28;20025;-68
2021/04/17 12:08:39;;;;;;;8.35;4.43;;;15.20;61.30;;;;;;5051813;28;20346;-68
2021/04/17 12:11:06;;;;;;;7.75;4.30;;;15.30;60.70;;;;;;5035880;28;20051;-68
2021/04/17 12:13:31;;;;;;;8.02;4.22;;;15.30;60.10;;;;;;5030374;28;20156;-68
2021/04/17 12:15:57;;;;;;;7.95;4.07;;;15.40;60.20;;;;;;5032509;28;20575;-68
2021/04/17 12:18:23;;;;;;;8.73;4.32;;;15.40;60.10;;;;;;5033075;28;20025;-68
2021/04/17 12:20:49;;;;;;;7.85;3.83;;;15.50;60.20;;;;;;5039125;28;20025;-69
2021/04/17 12:23:14;;;;;;;9.38;4.43;;;15.60;59.80;;;;;;5035071;28;20022;-67
2021/04/17 12:25:41;;;;;;;7.65;3.75;;;15.70;59.50;;;;;;5032239;28;20033;-69
2021/04/17 12:28:07;;;;;;;9.65;4.03;;;15.80;59.20;;;;;;5026866;28;20013;-69
2021/04/17 12:30:33;;;;;;;8.05;4.30;;;15.80;59.20;;;;;;5031170;28;20033;-69
2021/04/17 12:32:58;;;;;;;18.15;5.32;;;15.80;58.60;;;;;;5031912;28;20044;-69
2021/04/17 12:35:24;;;;;;;6.82;4.35;;;15.80;58.40;;;;;;5031996;28;20047;-70
2021/04/17 12:37:49;;;;;;;8.23;5.40;;;15.80;58.40;;;;;;5033255;28;20034;-69
2021/04/17 12:40:16;;;;;;;9.02;5.15;;;15.50;58.30;;;;;;5027995;28;20026;-68
2021/04/17 12:42:42;;;;;;;9.45;5.28;;;15.40;58.60;;;;;;5031042;28;20118;-67
2021/04/17 12:45:10;;;;;;;11.02;4.88;;;15.30;59.00;;;;;;5031568;28;20029;-68
2021/04/17 12:47:35;;;;;;;10.05;5.63;;;15.10;59.30;;;;;;5033302;28;20036;-67
2021/04/17 12:50:02;;;;;;;8.95;5.38;;;15.10;59.60;;;;;;5038374;28;20039;-67
2021/04/17 12:52:27;;;;;;;9.43;4.82;;;15.00;59.60;;;;;;5046128;28;20470;-67
2021/04/17 12:54:53;;;;;;;9.52;4.82;;;15.00;60.00;;;;;;5039177;28;20025;-67
2021/04/17 12:57:18;;;;;;;11.85;5.65;;;14.80;60.30;;;;;;5031164;28;20033;-68
2021/04/17 12:59:44;;;;;;;9.05;5.25;;;14.70;60.60;;;;;;5032418;28;20083;-68